CheckWX is a tool to help pilots better visualize weather data.  It is not intended as a substitute for an official pre-flight weather briefing.

12:29:42 UTC

SBMO TAF
Zumbi dos Palmares Airport
Maceió, Brazil
TAF SBMO 261000Z 2612/2712 26007KT 9999 SCT017 TX33/2618Z TN24/2707Z BECMG 2612/2614 09010KT SCT020BECMG 2614/2616 03007KT 9999 SCT030 RMK PAZ

Mar-26@
12:00 UTC

Mar-26 @ 12:00 UTC

Mar-27@
12:00 UTC

Mar-27 @ 12:00 UTC

TAF SBMO 261000Z 2612/2712 26007KT 9999 SCT017 TX33/2618Z TN24/2707Z
Wind
  • 260° at 7 KTS
Cloud Levels
  • Scattered at 1,700' AGL

Mar-26@
12:00 UTC

Mar-26 @ 12:00 UTC

Mar-26@
14:00 UTC

Mar-26 @ 14:00 UTC

BECMG 2612/2614 09010KT SCT020BECMG 2614/2616 03007KT 9999 SCT030 RMK PAZ

Becoming

Becoming Conditions expected by Tue, Mar 26, 2019 @ 14:00 UTC

Wind
  • 090° at 10 KTS
Cloud Levels
  • Scattered at 2,000' AGL

Mar-26@
14:00 UTC

Mar-26 @ 14:00 UTC

Mar-27@
12:00 UTC

Mar-27 @ 12:00 UTC

Becoming

Becoming Conditions expected by Tue, Mar 26, 2019 @ 16:00 UTC

Wind
  • 030° at 7 KTS
Cloud Levels
  • Scattered at 3,000' AGL